createdAt,value
2022-11-16T00:01:25.924Z,11.77
2022-11-16T00:03:53.133Z,11.67
2022-11-16T00:06:20.211Z,11.61
2022-11-16T00:09:10.999Z,11.64
2022-11-16T00:11:37.883Z,11.65
2022-11-16T00:14:05.237Z,11.66
2022-11-16T00:16:32.187Z,11.59
2022-11-16T00:19:00.243Z,11.61
2022-11-16T00:21:26.977Z,11.63
2022-11-16T00:23:53.804Z,11.60
2022-11-16T00:26:20.961Z,11.63
2022-11-16T00:28:47.818Z,11.61
2022-11-16T00:31:14.768Z,11.62
2022-11-16T00:33:41.201Z,11.59
2022-11-16T00:36:09.795Z,11.65
2022-11-16T00:38:36.622Z,11.72
2022-11-16T00:41:04.696Z,11.65
2022-11-16T00:43:31.103Z,11.58
2022-11-16T00:45:57.574Z,11.57
2022-11-16T00:48:23.956Z,11.57
2022-11-16T00:50:50.319Z,11.60
2022-11-16T00:53:17.606Z,11.57
2022-11-16T00:55:44.882Z,11.58
2022-11-16T00:58:12.820Z,11.61
2022-11-16T01:00:41.153Z,11.59
2022-11-16T01:03:07.899Z,11.56
2022-11-16T01:05:34.410Z,11.58
2022-11-16T01:08:00.816Z,11.55
2022-11-16T01:10:27.675Z,11.56
2022-11-16T01:12:54.797Z,11.58
2022-11-16T01:15:22.284Z,11.60
2022-11-16T01:17:48.885Z,11.68
2022-11-16T01:20:16.409Z,11.63
2022-11-16T01:22:43.337Z,11.56
2022-11-16T01:25:10.557Z,11.55
2022-11-16T01:27:37.515Z,11.56
2022-11-16T01:30:07.457Z,11.56
2022-11-16T01:32:36.792Z,11.59
2022-11-16T01:35:05.026Z,11.56
2022-11-16T01:37:33.600Z,11.56
2022-11-16T01:40:00.592Z,11.55
2022-11-16T01:42:28.719Z,11.54
2022-11-16T01:44:58.165Z,11.58
2022-11-16T01:47:24.846Z,11.55
2022-11-16T01:49:54.712Z,11.52
2022-11-16T01:52:29.080Z,11.51
2022-11-16T01:54:56.145Z,11.51
2022-11-16T01:57:27.171Z,11.52
2022-11-16T02:00:03.670Z,11.53
2022-11-16T02:02:39.953Z,11.52
2022-11-16T02:05:11.458Z,11.52
2022-11-16T02:08:31.615Z,11.51
2022-11-16T02:11:07.044Z,11.48
2022-11-16T02:13:41.929Z,11.48
2022-11-16T02:16:20.755Z,11.48
2022-11-16T02:18:59.845Z,11.47
2022-11-16T02:21:44.838Z,11.51
2022-11-16T02:24:19.435Z,11.55
2022-11-16T02:26:51.904Z,11.52
2022-11-16T02:29:51.092Z,11.48
2022-11-16T02:32:23.450Z,11.51
2022-11-16T02:34:56.970Z,11.49
2022-11-16T02:37:25.196Z,11.46
2022-11-16T02:39:57.468Z,11.45
2022-11-16T02:42:27.728Z,11.43
2022-11-16T02:44:57.963Z,11.49
2022-11-16T02:47:26.685Z,11.52
2022-11-16T02:49:57.796Z,11.47
2022-11-16T02:52:26.217Z,11.46
2022-11-16T02:54:52.668Z,11.46
2022-11-16T02:57:28.274Z,11.42
2022-11-16T02:59:56.807Z,11.44
2022-11-16T03:02:25.328Z,11.45
2022-11-16T03:05:18.066Z,11.40
2022-11-16T03:07:54.895Z,11.45
2022-11-16T03:10:40.463Z,11.43
2022-11-16T03:13:10.646Z,11.45
2022-11-16T03:15:38.452Z,11.41
2022-11-16T03:18:06.404Z,11.45
2022-11-16T03:20:34.422Z,11.47
2022-11-16T03:23:02.912Z,11.46
2022-11-16T03:25:30.868Z,11.43
2022-11-16T03:28:13.465Z,11.46
2022-11-16T03:31:00.891Z,11.50
2022-11-16T03:33:34.991Z,11.53
2022-11-16T03:36:12.958Z,11.55
2022-11-16T03:38:40.604Z,11.53
2022-11-16T03:41:08.935Z,11.52
2022-11-16T03:43:36.865Z,11.56
2022-11-16T03:46:04.733Z,11.53
2022-11-16T03:48:35.843Z,11.51
2022-11-16T03:51:06.378Z,11.49
2022-11-16T03:53:32.908Z,11.47
2022-11-16T03:55:59.673Z,11.45
2022-11-16T03:58:27.178Z,11.52
2022-11-16T04:00:55.515Z,11.55
2022-11-16T04:03:22.006Z,11.60
2022-11-16T04:06:07.959Z,11.60
2022-11-16T04:08:54.519Z,11.52
2022-11-16T04:11:41.194Z,11.52
2022-11-16T04:14:35.874Z,11.47
2022-11-16T04:17:23.018Z,11.49
2022-11-16T04:20:08.187Z,11.51
2022-11-16T04:22:55.951Z,11.45
2022-11-16T04:25:24.722Z,11.52
2022-11-16T04:28:10.608Z,11.55
2022-11-16T04:30:56.165Z,11.55
2022-11-16T04:33:41.321Z,11.51
2022-11-16T04:36:26.514Z,11.48
2022-11-16T04:38:52.941Z,11.49
2022-11-16T04:41:38.203Z,11.46
2022-11-16T04:44:04.773Z,11.46
2022-11-16T04:46:50.026Z,11.42
2022-11-16T04:49:16.731Z,11.45
2022-11-16T04:51:43.532Z,11.44
2022-11-16T04:54:09.960Z,11.46
2022-11-16T04:56:37.591Z,11.46
2022-11-16T04:59:03.951Z,11.44
2022-11-16T05:01:49.179Z,11.45
2022-11-16T05:04:15.711Z,11.42
2022-11-16T05:06:42.876Z,11.41
2022-11-16T05:09:09.617Z,11.37
2022-11-16T05:11:36.101Z,11.36
2022-11-16T05:14:02.857Z,11.36
2022-11-16T05:16:29.603Z,11.40
2022-11-16T05:19:14.892Z,11.40
2022-11-16T05:21:41.750Z,11.35
2022-11-16T05:24:28.495Z,11.39
2022-11-16T05:26:54.924Z,11.39
2022-11-16T05:29:22.625Z,11.38
2022-11-16T05:31:49.732Z,11.38
2022-11-16T05:34:16.807Z,11.35
2022-11-16T05:36:43.219Z,11.36
2022-11-16T05:39:10.648Z,11.37
2022-11-16T05:41:39.018Z,11.40
2022-11-16T05:44:06.238Z,11.41
2022-11-16T05:46:32.995Z,11.40
2022-11-16T05:49:00.753Z,11.42
2022-11-16T05:51:27.219Z,11.44
2022-11-16T05:53:54.935Z,11.47
2022-11-16T05:56:22.794Z,11.46
2022-11-16T05:58:51.173Z,11.45
2022-11-16T06:01:17.748Z,11.42
2022-11-16T06:03:44.184Z,11.38
2022-11-16T06:06:11.272Z,11.39
2022-11-16T06:08:37.904Z,11.42
2022-11-16T06:11:09.306Z,11.42
2022-11-16T06:13:36.854Z,11.34
2022-11-16T06:16:03.848Z,11.36
2022-11-16T06:18:31.779Z,11.30
2022-11-16T06:20:58.479Z,11.26
2022-11-16T06:23:25.531Z,11.32
2022-11-16T06:25:56.527Z,11.29
2022-11-16T06:28:25.613Z,11.20
2022-11-16T06:30:52.073Z,11.23
2022-11-16T06:33:18.993Z,11.29
2022-11-16T06:35:45.690Z,11.15
2022-11-16T06:38:20.151Z,11.08
2022-11-16T06:40:56.069Z,11.05
2022-11-16T06:43:25.381Z,10.99
2022-11-16T06:45:52.716Z,10.98
2022-11-16T06:48:19.580Z,10.73
2022-11-16T06:50:51.789Z,10.84
2022-11-16T06:53:23.491Z,10.95
2022-11-16T06:55:52.505Z,10.95
2022-11-16T06:58:19.416Z,10.95
2022-11-16T07:00:46.360Z,10.95
2022-11-16T07:03:15.004Z,10.92
2022-11-16T07:05:42.608Z,10.89
2022-11-16T07:08:13.391Z,10.90
2022-11-16T07:10:39.785Z,10.81
2022-11-16T07:13:07.306Z,10.65
2022-11-16T07:15:36.652Z,10.74
2022-11-16T07:18:06.766Z,10.77
2022-11-16T07:20:37.467Z,10.79
2022-11-16T07:23:03.928Z,10.78
2022-11-16T07:25:33.222Z,10.73
2022-11-16T07:28:00.862Z,10.77
2022-11-16T07:30:27.767Z,10.76
2022-11-16T07:33:03.737Z,10.75
2022-11-16T07:35:48.550Z,10.73
2022-11-16T07:38:18.179Z,10.64
2022-11-16T07:40:45.698Z,10.64
2022-11-16T07:43:15.297Z,10.66
2022-11-16T07:49:09.859Z,10.66
2022-11-16T07:51:49.311Z,10.63
2022-11-16T07:54:34.625Z,10.65
2022-11-16T07:57:01.414Z,10.65
2022-11-16T07:59:28.454Z,10.62
2022-11-16T08:01:55.761Z,10.62
2022-11-16T08:04:22.536Z,10.61
2022-11-16T08:06:51.624Z,10.56
2022-11-16T08:09:19.406Z,10.50
2022-11-16T08:11:47.048Z,10.52
2022-11-16T08:14:13.912Z,10.58
2022-11-16T08:16:40.310Z,10.51
2022-11-16T08:19:12.206Z,10.53
2022-11-16T08:21:38.602Z,10.52
2022-11-16T08:24:06.275Z,10.45
2022-11-16T08:26:36.186Z,10.41
2022-11-16T08:29:08.272Z,10.44
2022-11-16T08:31:38.424Z,10.41
2022-11-16T08:34:12.064Z,10.41
2022-11-16T08:36:41.967Z,10.37
2022-11-16T08:39:08.616Z,10.37
2022-11-16T08:41:37.506Z,10.42
2022-11-16T08:44:05.914Z,10.33
2022-11-16T08:46:35.551Z,10.40
2022-11-16T08:49:12.622Z,10.42
2022-11-16T08:51:39.112Z,10.42
2022-11-16T08:54:06.255Z,10.44
2022-11-16T08:56:35.477Z,10.41
2022-11-16T08:59:02.920Z,10.39
2022-11-16T09:01:30.379Z,10.42
2022-11-16T09:03:56.873Z,10.40
2022-11-16T09:06:24.012Z,10.43
2022-11-16T09:08:51.051Z,10.43
2022-11-16T09:11:18.691Z,10.52
2022-11-16T09:13:45.965Z,10.50
2022-11-16T09:16:15.787Z,10.48
2022-11-16T09:18:42.739Z,10.47
2022-11-16T09:21:09.208Z,10.52
2022-11-16T09:23:35.558Z,10.45
2022-11-16T09:26:05.915Z,10.56
2022-11-16T09:28:32.746Z,10.62
2022-11-16T09:31:01.829Z,10.72
2022-11-16T09:33:29.116Z,10.79
2022-11-16T09:35:56.383Z,10.85
2022-11-16T09:38:40.544Z,10.86
2022-11-16T09:41:26.283Z,10.94
2022-11-16T09:44:03.617Z,10.96
2022-11-16T09:46:34.602Z,10.95
2022-11-16T09:49:02.779Z,10.98
2022-11-16T09:51:32.471Z,11.18
2022-11-16T09:54:02.721Z,11.30
2022-11-16T09:56:31.085Z,11.35
2022-11-16T09:59:17.808Z,11.41
2022-11-16T10:01:50.767Z,11.47
2022-11-16T10:04:20.153Z,11.51
2022-11-16T10:06:49.736Z,11.49
2022-11-16T10:09:16.514Z,11.55
2022-11-16T10:11:58.917Z,11.47
2022-11-16T10:14:28.045Z,11.58
2022-11-16T10:17:06.481Z,11.63
2022-11-16T10:19:53.180Z,11.60
2022-11-16T10:22:25.897Z,11.60
2022-11-16T10:24:53.630Z,11.67
2022-11-16T10:27:38.938Z,11.60
2022-11-16T10:30:10.097Z,11.77
2022-11-16T10:32:39.388Z,11.77
2022-11-16T10:35:11.742Z,11.80
2022-11-16T10:37:40.944Z,11.86
2022-11-16T10:40:27.473Z,11.90
2022-11-16T10:43:00.038Z,11.85
2022-11-16T10:45:39.107Z,11.75
2022-11-16T10:48:05.604Z,11.82
2022-11-16T10:50:32.439Z,11.90
2022-11-16T10:52:59.502Z,12.09
2022-11-16T10:55:25.969Z,11.95
2022-11-16T10:58:02.670Z,11.95
2022-11-16T11:00:44.269Z,12.05
2022-11-16T11:03:11.833Z,12.16
2022-11-16T11:05:47.195Z,12.24
2022-11-16T11:08:23.831Z,12.15
2022-11-16T11:10:57.473Z,12.30
2022-11-16T11:13:26.480Z,12.23
2022-11-16T11:16:12.350Z,12.08
2022-11-16T11:18:38.721Z,12.09
2022-11-16T11:21:06.785Z,12.17
2022-11-16T11:23:47.581Z,12.18
2022-11-16T11:26:25.830Z,12.25
2022-11-16T11:28:52.298Z,12.22
2022-11-16T11:31:45.086Z,12.20
2022-11-16T11:34:26.080Z,12.36
2022-11-16T11:36:58.106Z,12.44
2022-11-16T11:39:24.503Z,12.30
2022-11-16T11:42:18.559Z,12.36
2022-11-16T11:45:03.588Z,12.39
2022-11-16T11:47:59.659Z,12.37
2022-11-16T11:50:32.710Z,12.40
2022-11-16T11:53:05.857Z,12.34
2022-11-16T11:55:32.217Z,12.30
2022-11-16T11:57:59.372Z,12.40
2022-11-16T12:00:26.151Z,12.38
2022-11-16T12:03:23.898Z,12.42
2022-11-16T12:05:50.260Z,12.41
2022-11-16T12:08:28.622Z,12.40
2022-11-16T12:11:04.212Z,12.49
2022-11-16T12:13:30.702Z,12.51
2022-11-16T12:16:11.807Z,12.53
2022-11-16T12:18:57.013Z,12.48
2022-11-16T12:21:26.459Z,12.49
2022-11-16T12:23:52.831Z,12.61
2022-11-16T12:26:54.842Z,12.51
2022-11-16T12:29:24.486Z,12.49
2022-11-16T12:31:50.851Z,12.51
2022-11-16T12:34:32.573Z,12.41
2022-11-16T12:36:58.929Z,12.45
2022-11-16T12:39:35.643Z,12.55
2022-11-16T12:42:14.025Z,12.42
2022-11-16T12:44:55.937Z,12.48
2022-11-16T12:47:23.305Z,12.31
2022-11-16T12:50:08.527Z,12.40
2022-11-16T12:52:58.216Z,12.43
2022-11-16T12:55:36.838Z,12.42
2022-11-16T12:58:06.390Z,12.39
2022-11-16T13:00:39.274Z,12.43
2022-11-16T13:03:14.699Z,12.44
2022-11-16T13:05:47.227Z,12.47
2022-11-16T13:08:32.277Z,12.55
2022-11-16T13:11:09.512Z,12.52
2022-11-16T13:13:37.324Z,12.54
2022-11-16T13:16:05.310Z,12.54
2022-11-16T13:18:33.174Z,12.40
2022-11-16T13:21:11.444Z,12.43
2022-11-16T13:23:49.604Z,12.47
2022-11-16T13:26:19.005Z,12.48
2022-11-16T13:28:45.340Z,12.47
2022-11-16T13:31:19.758Z,12.54
2022-11-16T13:33:51.361Z,12.59
2022-11-16T13:36:43.260Z,12.72
2022-11-16T13:39:11.123Z,12.84
2022-11-16T13:41:38.596Z,12.83
2022-11-16T13:44:11.172Z,12.78
2022-11-16T13:46:55.874Z,12.74
2022-11-16T13:49:25.896Z,12.69
2022-11-16T13:52:03.428Z,12.62
2022-11-16T13:54:48.282Z,12.56
2022-11-16T13:57:24.082Z,12.56
2022-11-16T13:59:55.923Z,12.47
2022-11-16T14:02:33.397Z,12.38
2022-11-16T14:05:00.921Z,12.32
2022-11-16T14:07:32.431Z,12.37
2022-11-16T14:09:59.293Z,12.36
2022-11-16T14:12:52.819Z,12.28
2022-11-16T14:15:25.275Z,12.38
2022-11-16T14:17:59.944Z,12.26
2022-11-16T14:20:39.304Z,12.28
2022-11-16T14:23:11.391Z,12.35
2022-11-16T14:25:40.685Z,12.16
2022-11-16T14:28:07.027Z,12.13
2022-11-16T14:31:02.970Z,12.10
2022-11-16T14:33:34.121Z,12.14
2022-11-16T14:36:03.422Z,12.19
2022-11-16T14:38:34.127Z,12.11
2022-11-16T14:41:05.732Z,12.12
2022-11-16T14:43:32.438Z,12.10
2022-11-16T14:46:04.213Z,12.10
2022-11-16T14:48:30.766Z,12.18
2022-11-16T14:51:06.111Z,12.02
2022-11-16T14:53:35.145Z,11.96
2022-11-16T14:56:05.501Z,11.97
2022-11-16T14:58:31.928Z,12.01
2022-11-16T15:01:03.420Z,11.93
2022-11-16T15:03:33.183Z,11.82
2022-11-16T15:06:00.724Z,11.84
2022-11-16T15:08:32.576Z,11.85
2022-11-16T15:10:59.468Z,11.85
2022-11-16T15:13:25.985Z,11.79
2022-11-16T15:16:08.963Z,11.91
2022-11-16T15:18:35.624Z,11.76
2022-11-16T15:21:02.058Z,11.60
2022-11-16T15:23:30.759Z,11.61
2022-11-16T15:25:59.314Z,11.48
2022-11-16T15:28:27.085Z,11.64
2022-11-16T15:30:54.951Z,11.53
2022-11-16T15:33:24.133Z,11.45
2022-11-16T15:35:50.887Z,11.42
2022-11-16T15:38:17.226Z,11.44
2022-11-16T15:40:49.288Z,11.39
2022-11-16T15:43:15.743Z,11.41
2022-11-16T15:45:42.617Z,11.40
2022-11-16T15:48:19.978Z,11.36
2022-11-16T15:51:05.772Z,11.41
2022-11-16T15:53:37.521Z,11.26
2022-11-16T15:56:05.962Z,11.33
2022-11-16T15:58:36.167Z,11.37
2022-11-16T16:01:02.937Z,11.29
2022-11-16T16:03:31.772Z,11.29
2022-11-16T16:05:58.479Z,11.23
2022-11-16T16:08:29.841Z,11.35
2022-11-16T16:11:04.010Z,11.14
2022-11-16T16:13:38.264Z,11.25
2022-11-16T16:16:17.042Z,11.28
2022-11-16T16:18:44.604Z,11.14
2022-11-16T16:21:12.522Z,11.22
2022-11-16T16:23:52.133Z,11.22
2022-11-16T16:26:18.493Z,11.20
2022-11-16T16:28:45.455Z,11.12
2022-11-16T16:31:12.172Z,11.14
2022-11-16T16:33:38.770Z,11.11
2022-11-16T16:36:05.722Z,11.06
2022-11-16T16:38:32.094Z,11.06
2022-11-16T16:41:02.592Z,11.06
2022-11-16T16:43:29.305Z,11.01
2022-11-16T16:45:55.991Z,10.99
2022-11-16T16:48:22.576Z,10.96
2022-11-16T16:50:49.029Z,10.95
2022-11-16T16:53:15.466Z,10.94
2022-11-16T16:55:42.732Z,10.91
2022-11-16T16:58:12.546Z,10.89
2022-11-16T17:00:39.353Z,10.76
2022-11-16T17:03:05.765Z,10.74
2022-11-16T17:05:35.276Z,10.77
2022-11-16T17:08:01.697Z,10.58
2022-11-16T17:10:28.214Z,10.52
2022-11-16T17:12:58.034Z,10.64
2022-11-16T17:15:24.565Z,10.51
2022-11-16T17:17:51.077Z,10.51
2022-11-16T17:20:17.594Z,10.55
2022-11-16T17:22:43.982Z,10.37
2022-11-16T17:25:10.589Z,10.40
2022-11-16T17:27:36.993Z,10.45
2022-11-16T17:30:03.787Z,10.64
2022-11-16T17:32:30.181Z,10.84
2022-11-16T17:34:56.652Z,10.89
2022-11-16T17:37:23.016Z,10.87
2022-11-16T17:39:49.374Z,10.95
2022-11-16T17:42:15.741Z,10.96
2022-11-16T17:44:42.093Z,10.81
2022-11-16T17:47:09.060Z,10.93
2022-11-16T17:49:35.437Z,10.90
2022-11-16T17:52:02.181Z,10.94
2022-11-16T17:54:28.514Z,10.85
2022-11-16T17:56:54.874Z,10.86
2022-11-16T17:59:24.960Z,11.03
2022-11-16T18:01:54.425Z,11.03
2022-11-16T18:04:20.767Z,11.17
2022-11-16T18:06:47.143Z,10.97
2022-11-16T18:09:13.506Z,11.22
2022-11-16T18:11:39.947Z,11.18
2022-11-16T18:14:06.364Z,10.95
2022-11-16T18:16:33.265Z,11.01
2022-11-16T18:19:01.075Z,11.25
2022-11-16T18:21:27.944Z,11.10
2022-11-16T18:23:54.344Z,11.12
2022-11-16T18:26:21.620Z,11.26
2022-11-16T18:28:48.351Z,11.15
2022-11-16T18:31:16.173Z,11.31
2022-11-16T18:33:43.062Z,10.76
2022-11-16T18:36:09.787Z,10.59
2022-11-16T18:38:39.183Z,10.42
2022-11-16T18:41:06.774Z,10.51
2022-11-16T18:43:36.663Z,10.47
2022-11-16T18:46:03.621Z,10.36
2022-11-16T18:48:30.061Z,10.22
2022-11-16T18:51:03.800Z,10.19
2022-11-16T18:53:31.055Z,10.06
2022-11-16T18:55:58.379Z,9.99
2022-11-16T18:58:49.413Z,10.09
2022-11-16T19:01:13.466Z,9.86
2022-11-16T19:03:40.121Z,10.03
2022-11-16T19:06:07.672Z,9.96
2022-11-16T19:08:34.762Z,9.90
2022-11-16T19:11:05.306Z,9.98
2022-11-16T19:13:32.155Z,9.90
2022-11-16T19:15:58.777Z,10.07
2022-11-16T19:18:25.403Z,10.11
2022-11-16T19:20:51.939Z,10.13
2022-11-16T19:23:18.379Z,10.36
2022-11-16T19:25:45.823Z,10.21
2022-11-16T19:28:12.196Z,10.30
2022-11-16T19:30:38.590Z,10.71
2022-11-16T19:33:05.003Z,10.74
2022-11-16T19:35:31.365Z,10.51
2022-11-16T19:37:58.192Z,10.55
2022-11-16T19:40:25.301Z,10.47
2022-11-16T19:42:52.822Z,10.83
2022-11-16T19:45:19.183Z,10.81
2022-11-16T19:47:45.526Z,10.60
2022-11-16T19:50:11.919Z,10.53
2022-11-16T19:52:38.289Z,10.53
2022-11-16T19:55:04.888Z,10.39
2022-11-16T19:57:31.290Z,10.79
2022-11-16T19:59:57.664Z,10.64
2022-11-16T20:02:24.080Z,10.58
2022-11-16T20:04:50.480Z,10.66
2022-11-16T20:07:18.122Z,10.66
2022-11-16T20:09:46.343Z,10.81
2022-11-16T20:12:15.718Z,10.63
2022-11-16T20:14:42.488Z,10.68
2022-11-16T20:17:08.979Z,10.71
2022-11-16T20:19:35.404Z,10.77
2022-11-16T20:22:01.875Z,10.69
2022-11-16T20:24:28.268Z,10.76
2022-11-16T20:26:54.627Z,10.75
2022-11-16T20:29:21.109Z,10.86
2022-11-16T20:31:47.611Z,10.79
2022-11-16T20:34:15.342Z,10.80
2022-11-16T20:36:43.584Z,10.65
2022-11-16T20:39:13.968Z,10.64
2022-11-16T20:41:40.353Z,10.82
2022-11-16T20:44:09.530Z,10.77
2022-11-16T20:46:40.385Z,10.64
2022-11-16T20:49:06.831Z,10.61
2022-11-16T20:51:33.243Z,10.68
2022-11-16T20:53:59.722Z,10.71
2022-11-16T20:56:27.011Z,10.66
2022-11-16T20:58:53.399Z,10.84
2022-11-16T21:01:31.881Z,10.84
2022-11-16T21:03:59.880Z,10.66
2022-11-16T21:06:27.089Z,10.89
2022-11-16T21:08:54.103Z,10.74
2022-11-16T21:11:22.585Z,10.91
2022-11-16T21:14:07.379Z,10.88
2022-11-16T21:16:34.294Z,10.87
2022-11-16T21:19:01.238Z,11.07
2022-11-16T21:21:27.893Z,10.80
2022-11-16T21:23:54.998Z,10.80
2022-11-16T21:26:25.610Z,10.81
2022-11-16T21:28:52.574Z,10.85
2022-11-16T21:31:20.553Z,10.71
2022-11-16T21:33:49.679Z,10.72
2022-11-16T21:36:17.482Z,10.73
2022-11-16T21:38:44.406Z,10.81
2022-11-16T21:41:11.748Z,10.79
2022-11-16T21:43:40.249Z,10.79
2022-11-16T21:46:10.910Z,10.68
2022-11-16T21:48:37.618Z,10.64
2022-11-16T21:51:08.015Z,10.73
2022-11-16T21:53:34.952Z,10.76
2022-11-16T21:56:02.103Z,10.80
2022-11-16T21:58:28.708Z,10.81
2022-11-16T22:00:59.425Z,10.81
2022-11-16T22:03:27.934Z,10.80
2022-11-16T22:06:13.615Z,10.71
2022-11-16T22:08:40.441Z,10.74
2022-11-16T22:11:07.894Z,10.66
2022-11-16T22:13:34.956Z,10.80
2022-11-16T22:16:08.426Z,10.77
2022-11-16T22:18:35.128Z,10.80
2022-11-16T22:21:01.938Z,10.89
2022-11-16T22:23:29.048Z,10.80
2022-11-16T22:25:59.813Z,10.76
2022-11-16T22:28:26.340Z,10.78
2022-11-16T22:31:02.676Z,10.75
2022-11-16T22:33:29.468Z,10.58
2022-11-16T22:35:56.095Z,10.54
2022-11-16T22:38:22.781Z,10.62
2022-11-16T22:40:50.589Z,10.58
2022-11-16T22:43:17.284Z,10.74
2022-11-16T22:45:43.632Z,10.72
2022-11-16T22:48:09.993Z,10.54
2022-11-16T22:50:36.353Z,10.62
2022-11-16T22:53:02.729Z,10.50
2022-11-16T22:55:29.077Z,10.47
2022-11-16T22:57:55.493Z,10.47
2022-11-16T23:00:21.955Z,10.48
2022-11-16T23:02:48.399Z,10.51
2022-11-16T23:05:14.780Z,10.53
2022-11-16T23:07:43.774Z,10.53
2022-11-16T23:10:10.399Z,10.48
2022-11-16T23:12:55.141Z,10.42
2022-11-16T23:15:48.707Z,10.37
2022-11-16T23:18:15.214Z,10.43
2022-11-16T23:21:14.101Z,10.42
2022-11-16T23:23:58.924Z,10.42
2022-11-16T23:26:43.774Z,10.56
2022-11-16T23:29:10.686Z,10.50
2022-11-16T23:31:37.683Z,10.43
2022-11-16T23:34:04.417Z,10.44
2022-11-16T23:36:30.861Z,10.48
2022-11-16T23:38:57.274Z,10.52
2022-11-16T23:41:42.490Z,10.45
2022-11-16T23:44:08.878Z,10.48
2022-11-16T23:46:35.238Z,10.47
2022-11-16T23:49:02.057Z,10.38
2022-11-16T23:51:28.434Z,10.52
2022-11-16T23:53:55.689Z,10.53
2022-11-16T23:56:22.749Z,10.47
2022-11-16T23:58:49.213Z,10.40
